sensor_id;sensor_type;location;lat;lon;timestamp;P1;durP1;ratioP1;P2;durP2;ratioP2
2624;SDS011;1322;53.256;10.386;2023-11-19T00:02:10;4.47;;;3.77;;
2624;SDS011;1322;53.256;10.386;2023-11-19T00:04:37;4.47;;;2.63;;
2624;SDS011;1322;53.256;10.386;2023-11-19T00:07:04;4.50;;;2.50;;
2624;SDS011;1322;53.256;10.386;2023-11-19T00:09:31;4.00;;;2.70;;
2624;SDS011;1322;53.256;10.386;2023-11-19T00:11:57;3.83;;;2.33;;
2624;SDS011;1322;53.256;10.386;2023-11-19T00:14:25;4.53;;;2.77;;
2624;SDS011;1322;53.256;10.386;2023-11-19T00:16:51;4.70;;;3.03;;
2624;SDS011;1322;53.256;10.386;2023-11-19T00:19:18;4.20;;;3.23;;
2624;SDS011;1322;53.256;10.386;2023-11-19T00:21:45;2.80;;;2.13;;
2624;SDS011;1322;53.256;10.386;2023-11-19T00:24:11;2.63;;;2.13;;
2624;SDS011;1322;53.256;10.386;2023-11-19T00:26:37;3.70;;;2.67;;
2624;SDS011;1322;53.256;10.386;2023-11-19T00:29:03;4.40;;;2.70;;
2624;SDS011;1322;53.256;10.386;2023-11-19T00:31:31;3.73;;;1.97;;
2624;SDS011;1322;53.256;10.386;2023-11-19T00:33:57;3.17;;;2.53;;
2624;SDS011;1322;53.256;10.386;2023-11-19T00:36:23;3.77;;;2.77;;
2624;SDS011;1322;53.256;10.386;2023-11-19T00:38:50;2.97;;;1.80;;
2624;SDS011;1322;53.256;10.386;2023-11-19T00:41:17;5.33;;;3.10;;
2624;SDS011;1322;53.256;10.386;2023-11-19T00:43:43;4.30;;;2.73;;
2624;SDS011;1322;53.256;10.386;2023-11-19T00:46:09;3.13;;;2.33;;
2624;SDS011;1322;53.256;10.386;2023-11-19T00:48:36;4.57;;;2.80;;
2624;SDS011;1322;53.256;10.386;2023-11-19T00:51:02;2.90;;;1.93;;
2624;SDS011;1322;53.256;10.386;2023-11-19T00:53:29;4.20;;;2.33;;
2624;SDS011;1322;53.256;10.386;2023-11-19T00:55:55;3.07;;;2.37;;
2624;SDS011;1322;53.256;10.386;2023-11-19T00:58:22;4.40;;;1.90;;
2624;SDS011;1322;53.256;10.386;2023-11-19T01:00:48;4.17;;;2.67;;
2624;SDS011;1322;53.256;10.386;2023-11-19T01:03:14;5.43;;;2.73;;
2624;SDS011;1322;53.256;10.386;2023-11-19T01:05:40;3.90;;;2.50;;
2624;SDS011;1322;53.256;10.386;2023-11-19T01:08:07;3.03;;;2.50;;
2624;SDS011;1322;53.256;10.386;2023-11-19T01:10:34;3.53;;;2.33;;
2624;SDS011;1322;53.256;10.386;2023-11-19T01:13:02;3.20;;;2.10;;
2624;SDS011;1322;53.256;10.386;2023-11-19T01:15:30;5.50;;;2.73;;
2624;SDS011;1322;53.256;10.386;2023-11-19T01:17:56;2.30;;;1.60;;
2624;SDS011;1322;53.256;10.386;2023-11-19T01:20:22;5.20;;;3.10;;
2624;SDS011;1322;53.256;10.386;2023-11-19T01:22:49;2.80;;;2.27;;
2624;SDS011;1322;53.256;10.386;2023-11-19T01:25:15;4.00;;;2.07;;
2624;SDS011;1322;53.256;10.386;2023-11-19T01:27:41;4.53;;;1.57;;
2624;SDS011;1322;53.256;10.386;2023-11-19T01:30:07;2.33;;;1.80;;
2624;SDS011;1322;53.256;10.386;2023-11-19T01:32:38;2.87;;;2.07;;
2624;SDS011;1322;53.256;10.386;2023-11-19T01:35:04;1.93;;;1.60;;
2624;SDS011;1322;53.256;10.386;2023-11-19T01:37:30;2.43;;;1.70;;
2624;SDS011;1322;53.256;10.386;2023-11-19T01:39:57;3.30;;;2.50;;
2624;SDS011;1322;53.256;10.386;2023-11-19T01:42:23;2.20;;;1.60;;
2624;SDS011;1322;53.256;10.386;2023-11-19T01:44:57;3.30;;;2.40;;
2624;SDS011;1322;53.256;10.386;2023-11-19T01:47:24;3.13;;;1.83;;
2624;SDS011;1322;53.256;10.386;2023-11-19T01:49:51;1.80;;;1.57;;
2624;SDS011;1322;53.256;10.386;2023-11-19T01:52:17;2.40;;;1.87;;
2624;SDS011;1322;53.256;10.386;2023-11-19T01:54:43;2.20;;;1.63;;
2624;SDS011;1322;53.256;10.386;2023-11-19T01:57:10;5.30;;;2.60;;
2624;SDS011;1322;53.256;10.386;2023-11-19T01:59:36;2.83;;;2.20;;
2624;SDS011;1322;53.256;10.386;2023-11-19T02:02:03;3.00;;;2.53;;
2624;SDS011;1322;53.256;10.386;2023-11-19T02:04:30;3.97;;;1.90;;
2624;SDS011;1322;53.256;10.386;2023-11-19T02:06:56;3.00;;;2.03;;
2624;SDS011;1322;53.256;10.386;2023-11-19T02:09:23;2.20;;;1.70;;
2624;SDS011;1322;53.256;10.386;2023-11-19T02:11:49;2.77;;;1.30;;
2624;SDS011;1322;53.256;10.386;2023-11-19T02:14:16;2.50;;;1.90;;
2624;SDS011;1322;53.256;10.386;2023-11-19T02:16:43;2.47;;;2.27;;
2624;SDS011;1322;53.256;10.386;2023-11-19T02:19:09;4.43;;;2.53;;
2624;SDS011;1322;53.256;10.386;2023-11-19T02:21:36;2.70;;;1.40;;
2624;SDS011;1322;53.256;10.386;2023-11-19T02:24:03;2.13;;;1.73;;
2624;SDS011;1322;53.256;10.386;2023-11-19T02:27:19;2.97;;;1.60;;
2624;SDS011;1322;53.256;10.386;2023-11-19T02:29:30;2.50;;;1.63;;
2624;SDS011;1322;53.256;10.386;2023-11-19T02:31:56;3.20;;;2.17;;
2624;SDS011;1322;53.256;10.386;2023-11-19T02:34:22;1.90;;;1.30;;
2624;SDS011;1322;53.256;10.386;2023-11-19T02:36:48;2.00;;;1.50;;
2624;SDS011;1322;53.256;10.386;2023-11-19T02:39:15;2.10;;;1.57;;
2624;SDS011;1322;53.256;10.386;2023-11-19T02:41:46;1.70;;;1.33;;
2624;SDS011;1322;53.256;10.386;2023-11-19T02:44:12;1.50;;;1.10;;
2624;SDS011;1322;53.256;10.386;2023-11-19T02:46:38;1.43;;;0.97;;
2624;SDS011;1322;53.256;10.386;2023-11-19T02:49:07;1.97;;;1.50;;
2624;SDS011;1322;53.256;10.386;2023-11-19T02:51:33;2.20;;;1.40;;
2624;SDS011;1322;53.256;10.386;2023-11-19T02:54:00;1.33;;;1.00;;
2624;SDS011;1322;53.256;10.386;2023-11-19T02:56:26;2.70;;;1.50;;
2624;SDS011;1322;53.256;10.386;2023-11-19T02:58:52;1.97;;;1.57;;
2624;SDS011;1322;53.256;10.386;2023-11-19T03:01:21;3.30;;;1.80;;
2624;SDS011;1322;53.256;10.386;2023-11-19T03:03:59;1.47;;;1.00;;
2624;SDS011;1322;53.256;10.386;2023-11-19T03:06:26;1.50;;;1.00;;
2624;SDS011;1322;53.256;10.386;2023-11-19T03:08:54;1.30;;;1.00;;
2624;SDS011;1322;53.256;10.386;2023-11-19T03:11:20;2.83;;;1.80;;
2624;SDS011;1322;53.256;10.386;2023-11-19T03:13:46;1.40;;;1.03;;
2624;SDS011;1322;53.256;10.386;2023-11-19T03:16:12;1.23;;;0.90;;
2624;SDS011;1322;53.256;10.386;2023-11-19T03:18:38;1.53;;;1.20;;
2624;SDS011;1322;53.256;10.386;2023-11-19T03:21:06;1.53;;;0.90;;
2624;SDS011;1322;53.256;10.386;2023-11-19T03:23:33;1.30;;;1.10;;
2624;SDS011;1322;53.256;10.386;2023-11-19T03:25:59;1.60;;;1.13;;
2624;SDS011;1322;53.256;10.386;2023-11-19T03:28:28;1.20;;;0.80;;
2624;SDS011;1322;53.256;10.386;2023-11-19T03:30:54;1.60;;;1.00;;
2624;SDS011;1322;53.256;10.386;2023-11-19T03:33:20;1.20;;;0.73;;
2624;SDS011;1322;53.256;10.386;2023-11-19T03:35:46;1.07;;;0.73;;
2624;SDS011;1322;53.256;10.386;2023-11-19T03:38:12;1.13;;;0.80;;
2624;SDS011;1322;53.256;10.386;2023-11-19T03:40:39;1.50;;;1.20;;
2624;SDS011;1322;53.256;10.386;2023-11-19T03:43:05;1.10;;;0.70;;
2624;SDS011;1322;53.256;10.386;2023-11-19T03:45:32;1.47;;;0.70;;
2624;SDS011;1322;53.256;10.386;2023-11-19T03:47:58;1.60;;;0.83;;
2624;SDS011;1322;53.256;10.386;2023-11-19T03:50:24;1.20;;;0.80;;
2624;SDS011;1322;53.256;10.386;2023-11-19T03:52:49;1.20;;;1.00;;
2624;SDS011;1322;53.256;10.386;2023-11-19T03:55:15;1.10;;;0.80;;
2624;SDS011;1322;53.256;10.386;2023-11-19T03:57:43;1.10;;;0.73;;
2624;SDS011;1322;53.256;10.386;2023-11-19T04:00:09;1.13;;;0.70;;
2624;SDS011;1322;53.256;10.386;2023-11-19T04:02:35;1.30;;;0.90;;
2624;SDS011;1322;53.256;10.386;2023-11-19T04:05:01;1.70;;;1.10;;
2624;SDS011;1322;53.256;10.386;2023-11-19T04:07:28;2.57;;;1.10;;
2624;SDS011;1322;53.256;10.386;2023-11-19T04:09:55;1.47;;;1.10;;
2624;SDS011;1322;53.256;10.386;2023-11-19T04:12:21;1.30;;;0.80;;
2624;SDS011;1322;53.256;10.386;2023-11-19T04:14:47;1.20;;;0.90;;
2624;SDS011;1322;53.256;10.386;2023-11-19T04:17:13;1.23;;;0.90;;
2624;SDS011;1322;53.256;10.386;2023-11-19T04:19:39;1.60;;;1.00;;
2624;SDS011;1322;53.256;10.386;2023-11-19T04:22:06;1.40;;;1.07;;
2624;SDS011;1322;53.256;10.386;2023-11-19T04:24:33;1.20;;;1.00;;
2624;SDS011;1322;53.256;10.386;2023-11-19T04:26:59;1.80;;;1.00;;
2624;SDS011;1322;53.256;10.386;2023-11-19T04:29:25;1.40;;;1.03;;
2624;SDS011;1322;53.256;10.386;2023-11-19T04:31:51;2.00;;;1.00;;
2624;SDS011;1322;53.256;10.386;2023-11-19T04:34:17;2.20;;;1.57;;
2624;SDS011;1322;53.256;10.386;2023-11-19T04:36:43;1.67;;;1.40;;
2624;SDS011;1322;53.256;10.386;2023-11-19T04:39:09;2.70;;;1.93;;
2624;SDS011;1322;53.256;10.386;2023-11-19T04:41:49;1.80;;;1.50;;
2624;SDS011;1322;53.256;10.386;2023-11-19T04:44:15;2.17;;;1.93;;
2624;SDS011;1322;53.256;10.386;2023-11-19T04:46:41;1.97;;;1.67;;
2624;SDS011;1322;53.256;10.386;2023-11-19T04:49:10;2.23;;;2.00;;
2624;SDS011;1322;53.256;10.386;2023-11-19T04:51:43;2.70;;;1.90;;
2624;SDS011;1322;53.256;10.386;2023-11-19T04:54:12;2.67;;;1.87;;
2624;SDS011;1322;53.256;10.386;2023-11-19T04:56:38;3.30;;;2.40;;
2624;SDS011;1322;53.256;10.386;2023-11-19T04:59:05;4.07;;;2.27;;
2624;SDS011;1322;53.256;10.386;2023-11-19T05:01:31;3.00;;;2.13;;
2624;SDS011;1322;53.256;10.386;2023-11-19T05:03:58;3.13;;;2.40;;
2624;SDS011;1322;53.256;10.386;2023-11-19T05:06:27;3.70;;;2.90;;
2624;SDS011;1322;53.256;10.386;2023-11-19T05:08:54;5.13;;;3.00;;
2624;SDS011;1322;53.256;10.386;2023-11-19T05:11:20;3.20;;;2.30;;
2624;SDS011;1322;53.256;10.386;2023-11-19T05:13:46;5.00;;;3.20;;
2624;SDS011;1322;53.256;10.386;2023-11-19T05:16:12;3.80;;;2.80;;
2624;SDS011;1322;53.256;10.386;2023-11-19T05:18:39;5.80;;;3.70;;
2624;SDS011;1322;53.256;10.386;2023-11-19T05:21:05;4.30;;;2.97;;
2624;SDS011;1322;53.256;10.386;2023-11-19T05:23:34;5.10;;;3.53;;
2624;SDS011;1322;53.256;10.386;2023-11-19T05:26:03;4.07;;;2.73;;
2624;SDS011;1322;53.256;10.386;2023-11-19T05:28:29;5.70;;;4.07;;
2624;SDS011;1322;53.256;10.386;2023-11-19T05:30:55;4.50;;;3.83;;
2624;SDS011;1322;53.256;10.386;2023-11-19T05:33:21;5.30;;;3.70;;
2624;SDS011;1322;53.256;10.386;2023-11-19T05:35:47;4.40;;;3.90;;
2624;SDS011;1322;53.256;10.386;2023-11-19T05:38:13;4.70;;;3.50;;
2624;SDS011;1322;53.256;10.386;2023-11-19T05:40:41;5.20;;;3.40;;
2624;SDS011;1322;53.256;10.386;2023-11-19T05:43:06;8.47;;;4.73;;
2624;SDS011;1322;53.256;10.386;2023-11-19T05:45:32;5.80;;;4.23;;
2624;SDS011;1322;53.256;10.386;2023-11-19T05:47:58;7.17;;;4.33;;
2624;SDS011;1322;53.256;10.386;2023-11-19T05:50:24;5.23;;;4.00;;
2624;SDS011;1322;53.256;10.386;2023-11-19T05:52:50;9.60;;;4.07;;
2624;SDS011;1322;53.256;10.386;2023-11-19T05:55:18;9.00;;;5.17;;
2624;SDS011;1322;53.256;10.386;2023-11-19T05:57:44;7.47;;;4.17;;
2624;SDS011;1322;53.256;10.386;2023-11-19T06:00:10;7.00;;;4.43;;
2624;SDS011;1322;53.256;10.386;2023-11-19T06:02:38;6.10;;;3.50;;
2624;SDS011;1322;53.256;10.386;2023-11-19T06:05:04;8.60;;;5.47;;
2624;SDS011;1322;53.256;10.386;2023-11-19T06:07:31;6.37;;;4.50;;
2624;SDS011;1322;53.256;10.386;2023-11-19T06:09:57;6.83;;;5.00;;
2624;SDS011;1322;53.256;10.386;2023-11-19T06:12:23;8.20;;;5.80;;
2624;SDS011;1322;53.256;10.386;2023-11-19T06:14:49;8.50;;;5.47;;
2624;SDS011;1322;53.256;10.386;2023-11-19T06:17:15;5.70;;;4.30;;
2624;SDS011;1322;53.256;10.386;2023-11-19T06:19:41;8.20;;;4.83;;
2624;SDS011;1322;53.256;10.386;2023-11-19T06:22:07;7.20;;;5.57;;
2624;SDS011;1322;53.256;10.386;2023-11-19T06:24:33;5.23;;;4.53;;
2624;SDS011;1322;53.256;10.386;2023-11-19T06:26:59;6.47;;;4.50;;
2624;SDS011;1322;53.256;10.386;2023-11-19T06:29:25;9.03;;;5.17;;
2624;SDS011;1322;53.256;10.386;2023-11-19T06:31:52;8.33;;;4.20;;
2624;SDS011;1322;53.256;10.386;2023-11-19T06:34:18;8.80;;;3.97;;
2624;SDS011;1322;53.256;10.386;2023-11-19T06:36:44;5.13;;;4.10;;
2624;SDS011;1322;53.256;10.386;2023-11-19T06:39:10;6.03;;;4.40;;
2624;SDS011;1322;53.256;10.386;2023-11-19T06:41:36;8.93;;;5.33;;
2624;SDS011;1322;53.256;10.386;2023-11-19T06:44:04;5.50;;;4.20;;
2624;SDS011;1322;53.256;10.386;2023-11-19T06:46:30;10.13;;;4.73;;
2624;SDS011;1322;53.256;10.386;2023-11-19T06:48:56;5.50;;;4.00;;
2624;SDS011;1322;53.256;10.386;2023-11-19T06:51:22;10.60;;;5.23;;
2624;SDS011;1322;53.256;10.386;2023-11-19T06:53:49;14.10;;;4.90;;
2624;SDS011;1322;53.256;10.386;2023-11-19T06:56:21;14.53;;;3.80;;
2624;SDS011;1322;53.256;10.386;2023-11-19T06:58:48;10.10;;;4.73;;
2624;SDS011;1322;53.256;10.386;2023-11-19T07:01:14;13.63;;;3.93;;
2624;SDS011;1322;53.256;10.386;2023-11-19T07:03:41;11.30;;;5.40;;
2624;SDS011;1322;53.256;10.386;2023-11-19T07:06:07;12.83;;;4.60;;
2624;SDS011;1322;53.256;10.386;2023-11-19T07:08:33;15.47;;;5.10;;
2624;SDS011;1322;53.256;10.386;2023-11-19T07:10:59;13.27;;;5.07;;
2624;SDS011;1322;53.256;10.386;2023-11-19T07:13:25;13.67;;;5.50;;
2624;SDS011;1322;53.256;10.386;2023-11-19T07:15:52;7.60;;;3.90;;
2624;SDS011;1322;53.256;10.386;2023-11-19T07:18:18;19.50;;;4.73;;
2624;SDS011;1322;53.256;10.386;2023-11-19T07:20:47;10.37;;;4.10;;
2624;SDS011;1322;53.256;10.386;2023-11-19T07:23:13;13.87;;;4.20;;
2624;SDS011;1322;53.256;10.386;2023-11-19T07:25:41;19.27;;;10.10;;
2624;SDS011;1322;53.256;10.386;2023-11-19T07:28:08;10.83;;;6.27;;
2624;SDS011;1322;53.256;10.386;2023-11-19T07:30:35;14.93;;;4.80;;
2624;SDS011;1322;53.256;10.386;2023-11-19T07:33:01;16.00;;;4.77;;
2624;SDS011;1322;53.256;10.386;2023-11-19T07:35:29;18.73;;;6.00;;
2624;SDS011;1322;53.256;10.386;2023-11-19T07:37:58;11.27;;;4.30;;
2624;SDS011;1322;53.256;10.386;2023-11-19T07:40:24;9.40;;;4.80;;
2624;SDS011;1322;53.256;10.386;2023-11-19T07:42:50;14.50;;;4.73;;
2624;SDS011;1322;53.256;10.386;2023-11-19T07:45:17;10.37;;;4.10;;
2624;SDS011;1322;53.256;10.386;2023-11-19T07:47:43;9.43;;;3.20;;
2624;SDS011;1322;53.256;10.386;2023-11-19T07:50:12;10.27;;;4.87;;
2624;SDS011;1322;53.256;10.386;2023-11-19T07:52:39;11.83;;;3.83;;
2624;SDS011;1322;53.256;10.386;2023-11-19T07:55:05;7.97;;;3.10;;
2624;SDS011;1322;53.256;10.386;2023-11-19T07:57:31;7.73;;;3.73;;
2624;SDS011;1322;53.256;10.386;2023-11-19T07:59:58;7.67;;;4.47;;
2624;SDS011;1322;53.256;10.386;2023-11-19T08:02:24;8.17;;;3.03;;
2624;SDS011;1322;53.256;10.386;2023-11-19T08:04:50;8.57;;;3.23;;
2624;SDS011;1322;53.256;10.386;2023-11-19T08:07:17;13.03;;;3.20;;
2624;SDS011;1322;53.256;10.386;2023-11-19T08:09:44;17.20;;;4.70;;
2624;SDS011;1322;53.256;10.386;2023-11-19T08:12:10;9.13;;;2.73;;
2624;SDS011;1322;53.256;10.386;2023-11-19T08:14:36;3.07;;;2.40;;
2624;SDS011;1322;53.256;10.386;2023-11-19T08:17:02;8.30;;;3.30;;
2624;SDS011;1322;53.256;10.386;2023-11-19T08:19:28;10.70;;;3.00;;
2624;SDS011;1322;53.256;10.386;2023-11-19T08:21:54;13.03;;;4.63;;
2624;SDS011;1322;53.256;10.386;2023-11-19T08:24:20;8.67;;;3.87;;
2624;SDS011;1322;53.256;10.386;2023-11-19T08:26:46;8.43;;;2.77;;
2624;SDS011;1322;53.256;10.386;2023-11-19T08:29:12;9.87;;;3.50;;
2624;SDS011;1322;53.256;10.386;2023-11-19T08:31:39;24.07;;;4.13;;
2624;SDS011;1322;53.256;10.386;2023-11-19T08:34:05;7.70;;;3.20;;
2624;SDS011;1322;53.256;10.386;2023-11-19T08:36:34;15.73;;;4.10;;
2624;SDS011;1322;53.256;10.386;2023-11-19T08:39:00;15.13;;;3.60;;
2624;SDS011;1322;53.256;10.386;2023-11-19T08:41:26;16.10;;;4.13;;
2624;SDS011;1322;53.256;10.386;2023-11-19T08:43:52;9.03;;;3.13;;
2624;SDS011;1322;53.256;10.386;2023-11-19T08:46:18;11.00;;;3.27;;
2624;SDS011;1322;53.256;10.386;2023-11-19T08:48:44;14.43;;;4.20;;
2624;SDS011;1322;53.256;10.386;2023-11-19T08:51:11;13.07;;;4.07;;
2624;SDS011;1322;53.256;10.386;2023-11-19T08:53:37;13.90;;;3.63;;
2624;SDS011;1322;53.256;10.386;2023-11-19T08:56:03;10.13;;;2.80;;
2624;SDS011;1322;53.256;10.386;2023-11-19T08:58:29;12.60;;;4.63;;
2624;SDS011;1322;53.256;10.386;2023-11-19T09:00:55;10.10;;;3.20;;
2624;SDS011;1322;53.256;10.386;2023-11-19T09:03:21;11.33;;;3.33;;
2624;SDS011;1322;53.256;10.386;2023-11-19T09:05:47;11.93;;;3.60;;
2624;SDS011;1322;53.256;10.386;2023-11-19T09:08:14;13.97;;;4.67;;
2624;SDS011;1322;53.256;10.386;2023-11-19T09:10:39;10.03;;;3.90;;
2624;SDS011;1322;53.256;10.386;2023-11-19T09:13:05;5.83;;;2.93;;
2624;SDS011;1322;53.256;10.386;2023-11-19T09:15:32;20.07;;;4.50;;
2624;SDS011;1322;53.256;10.386;2023-11-19T09:17:58;17.17;;;3.30;;
2624;SDS011;1322;53.256;10.386;2023-11-19T09:20:24;6.50;;;2.83;;
2624;SDS011;1322;53.256;10.386;2023-11-19T09:22:50;13.87;;;3.83;;
2624;SDS011;1322;53.256;10.386;2023-11-19T09:25:16;19.03;;;3.67;;
2624;SDS011;1322;53.256;10.386;2023-11-19T09:27:43;17.23;;;4.27;;
2624;SDS011;1322;53.256;10.386;2023-11-19T09:30:09;9.00;;;3.60;;
2624;SDS011;1322;53.256;10.386;2023-11-19T09:32:35;13.80;;;3.70;;
2624;SDS011;1322;53.256;10.386;2023-11-19T09:35:02;10.97;;;3.00;;
2624;SDS011;1322;53.256;10.386;2023-11-19T09:37:29;16.47;;;3.47;;
2624;SDS011;1322;53.256;10.386;2023-11-19T09:39:55;12.07;;;3.90;;
2624;SDS011;1322;53.256;10.386;2023-11-19T09:42:21;10.27;;;3.10;;
2624;SDS011;1322;53.256;10.386;2023-11-19T09:44:47;10.93;;;3.37;;
2624;SDS011;1322;53.256;10.386;2023-11-19T09:47:13;8.80;;;3.00;;
2624;SDS011;1322;53.256;10.386;2023-11-19T09:49:41;19.20;;;4.80;;
2624;SDS011;1322;53.256;10.386;2023-11-19T09:52:07;23.30;;;3.73;;
2624;SDS011;1322;53.256;10.386;2023-11-19T09:54:33;15.23;;;3.90;;
2624;SDS011;1322;53.256;10.386;2023-11-19T09:56:59;10.43;;;3.70;;
2624;SDS011;1322;53.256;10.386;2023-11-19T09:59:29;19.03;;;3.57;;
2624;SDS011;1322;53.256;10.386;2023-11-19T10:01:56;18.60;;;3.83;;
2624;SDS011;1322;53.256;10.386;2023-11-19T10:04:22;14.20;;;3.73;;
2624;SDS011;1322;53.256;10.386;2023-11-19T10:06:48;9.93;;;2.93;;
2624;SDS011;1322;53.256;10.386;2023-11-19T10:09:16;20.33;;;4.00;;
2624;SDS011;1322;53.256;10.386;2023-11-19T10:11:42;10.33;;;3.17;;
2624;SDS011;1322;53.256;10.386;2023-11-19T10:14:08;18.53;;;4.87;;
2624;SDS011;1322;53.256;10.386;2023-11-19T10:16:34;10.50;;;2.67;;
2624;SDS011;1322;53.256;10.386;2023-11-19T10:19:00;23.23;;;4.67;;
2624;SDS011;1322;53.256;10.386;2023-11-19T10:21:27;15.33;;;3.77;;
2624;SDS011;1322;53.256;10.386;2023-11-19T10:26:19;16.87;;;3.80;;
2624;SDS011;1322;53.256;10.386;2023-11-19T10:28:46;13.00;;;2.87;;
2624;SDS011;1322;53.256;10.386;2023-11-19T10:31:15;12.50;;;3.80;;
2624;SDS011;1322;53.256;10.386;2023-11-19T10:33:42;9.23;;;2.60;;
2624;SDS011;1322;53.256;10.386;2023-11-19T10:36:10;8.93;;;3.50;;
2624;SDS011;1322;53.256;10.386;2023-11-19T10:38:37;15.63;;;3.90;;
2624;SDS011;1322;53.256;10.386;2023-11-19T10:41:03;16.03;;;3.10;;
2624;SDS011;1322;53.256;10.386;2023-11-19T10:43:30;19.30;;;3.77;;
2624;SDS011;1322;53.256;10.386;2023-11-19T10:46:09;13.20;;;5.43;;
2624;SDS011;1322;53.256;10.386;2023-11-19T10:48:36;22.93;;;6.33;;
2624;SDS011;1322;53.256;10.386;2023-11-19T10:51:02;11.17;;;3.53;;
2624;SDS011;1322;53.256;10.386;2023-11-19T10:53:35;11.87;;;2.73;;
2624;SDS011;1322;53.256;10.386;2023-11-19T10:56:04;10.93;;;3.60;;
2624;SDS011;1322;53.256;10.386;2023-11-19T10:58:33;9.50;;;3.37;;
2624;SDS011;1322;53.256;10.386;2023-11-19T11:01:03;15.10;;;3.37;;
2624;SDS011;1322;53.256;10.386;2023-11-19T11:03:39;12.07;;;4.10;;
2624;SDS011;1322;53.256;10.386;2023-11-19T11:06:05;17.17;;;3.33;;
2624;SDS011;1322;53.256;10.386;2023-11-19T11:08:31;28.73;;;4.40;;
2624;SDS011;1322;53.256;10.386;2023-11-19T11:10:57;9.40;;;2.97;;
2624;SDS011;1322;53.256;10.386;2023-11-19T11:13:25;11.10;;;2.90;;
2624;SDS011;1322;53.256;10.386;2023-11-19T11:15:55;7.33;;;2.50;;
2624;SDS011;1322;53.256;10.386;2023-11-19T11:18:23;14.07;;;4.47;;
2624;SDS011;1322;53.256;10.386;2023-11-19T11:20:52;11.90;;;4.03;;
2624;SDS011;1322;53.256;10.386;2023-11-19T11:26:32;13.77;;;3.40;;
2624;SDS011;1322;53.256;10.386;2023-11-19T11:38:00;15.70;;;3.67;;
2624;SDS011;1322;53.256;10.386;2023-11-19T11:40:29;19.53;;;4.63;;
2624;SDS011;1322;53.256;10.386;2023-11-19T11:42:56;16.47;;;4.50;;
2624;SDS011;1322;53.256;10.386;2023-11-19T11:45:35;15.47;;;4.53;;
2624;SDS011;1322;53.256;10.386;2023-11-19T11:50:47;13.73;;;3.63;;
2624;SDS011;1322;53.256;10.386;2023-11-19T11:53:17;17.67;;;3.50;;
2624;SDS011;1322;53.256;10.386;2023-11-19T11:58:13;8.03;;;3.53;;
2624;SDS011;1322;53.256;10.386;2023-11-19T12:00:39;5.73;;;2.40;;
2624;SDS011;1322;53.256;10.386;2023-11-19T12:03:06;24.87;;;4.87;;
2624;SDS011;1322;53.256;10.386;2023-11-19T12:05:33;11.50;;;3.90;;
2624;SDS011;1322;53.256;10.386;2023-11-19T12:08:11;10.43;;;2.67;;
2624;SDS011;1322;53.256;10.386;2023-11-19T12:10:46;15.27;;;3.50;;
2624;SDS011;1322;53.256;10.386;2023-11-19T12:13:16;8.50;;;2.50;;
2624;SDS011;1322;53.256;10.386;2023-11-19T12:18:28;12.23;;;3.13;;
2624;SDS011;1322;53.256;10.386;2023-11-19T12:20:58;5.93;;;2.90;;
2624;SDS011;1322;53.256;10.386;2023-11-19T12:23:28;11.13;;;4.57;;
2624;SDS011;1322;53.256;10.386;2023-11-19T12:25:55;9.30;;;3.50;;
2624;SDS011;1322;53.256;10.386;2023-11-19T12:28:21;13.40;;;3.70;;
2624;SDS011;1322;53.256;10.386;2023-11-19T12:30:49;8.00;;;2.13;;
2624;SDS011;1322;53.256;10.386;2023-11-19T12:33:16;6.87;;;2.73;;
2624;SDS011;1322;53.256;10.386;2023-11-19T12:35:43;11.17;;;3.07;;
2624;SDS011;1322;53.256;10.386;2023-11-19T12:41:05;21.30;;;9.07;;
2624;SDS011;1322;53.256;10.386;2023-11-19T12:43:31;9.50;;;3.00;;
2624;SDS011;1322;53.256;10.386;2023-11-19T12:45:59;13.73;;;2.60;;
2624;SDS011;1322;53.256;10.386;2023-11-19T12:48:25;8.80;;;2.83;;
2624;SDS011;1322;53.256;10.386;2023-11-19T12:50:55;8.37;;;2.90;;
2624;SDS011;1322;53.256;10.386;2023-11-19T12:53:22;8.07;;;2.40;;
2624;SDS011;1322;53.256;10.386;2023-11-19T12:55:49;6.60;;;2.93;;
2624;SDS011;1322;53.256;10.386;2023-11-19T12:58:30;9.90;;;2.90;;
2624;SDS011;1322;53.256;10.386;2023-11-19T13:01:06;14.07;;;3.07;;
2624;SDS011;1322;53.256;10.386;2023-11-19T13:03:33;9.33;;;2.17;;
2624;SDS011;1322;53.256;10.386;2023-11-19T13:06:04;11.87;;;3.07;;
2624;SDS011;1322;53.256;10.386;2023-11-19T13:08:39;9.13;;;2.60;;
2624;SDS011;1322;53.256;10.386;2023-11-19T13:11:07;13.37;;;3.00;;
2624;SDS011;1322;53.256;10.386;2023-11-19T13:13:50;15.20;;;4.20;;
2624;SDS011;1322;53.256;10.386;2023-11-19T13:16:24;12.93;;;2.87;;
2624;SDS011;1322;53.256;10.386;2023-11-19T13:18:50;8.83;;;2.70;;
2624;SDS011;1322;53.256;10.386;2023-11-19T13:21:16;7.33;;;2.87;;
2624;SDS011;1322;53.256;10.386;2023-11-19T13:23:43;13.33;;;3.77;;
2624;SDS011;1322;53.256;10.386;2023-11-19T13:26:09;12.00;;;3.63;;
2624;SDS011;1322;53.256;10.386;2023-11-19T13:28:36;13.40;;;4.27;;
2624;SDS011;1322;53.256;10.386;2023-11-19T13:31:02;20.93;;;3.23;;
2624;SDS011;1322;53.256;10.386;2023-11-19T13:33:28;17.00;;;3.10;;
2624;SDS011;1322;53.256;10.386;2023-11-19T13:35:57;16.90;;;3.20;;
2624;SDS011;1322;53.256;10.386;2023-11-19T13:38:23;10.87;;;2.83;;
2624;SDS011;1322;53.256;10.386;2023-11-19T13:40:49;15.33;;;3.80;;
2624;SDS011;1322;53.256;10.386;2023-11-19T13:43:16;11.90;;;3.73;;
2624;SDS011;1322;53.256;10.386;2023-11-19T13:45:42;7.77;;;2.80;;
2624;SDS011;1322;53.256;10.386;2023-11-19T13:48:08;7.87;;;3.20;;
2624;SDS011;1322;53.256;10.386;2023-11-19T13:50:34;19.57;;;4.57;;
2624;SDS011;1322;53.256;10.386;2023-11-19T13:53:00;9.30;;;2.97;;
2624;SDS011;1322;53.256;10.386;2023-11-19T13:55:26;8.60;;;3.20;;
2624;SDS011;1322;53.256;10.386;2023-11-19T13:57:52;11.13;;;3.20;;
2624;SDS011;1322;53.256;10.386;2023-11-19T14:00:18;12.03;;;2.90;;
2624;SDS011;1322;53.256;10.386;2023-11-19T14:02:45;9.23;;;4.20;;
2624;SDS011;1322;53.256;10.386;2023-11-19T14:05:12;10.57;;;3.43;;
2624;SDS011;1322;53.256;10.386;2023-11-19T14:07:39;8.40;;;3.73;;
2624;SDS011;1322;53.256;10.386;2023-11-19T14:10:05;15.13;;;4.30;;
2624;SDS011;1322;53.256;10.386;2023-11-19T14:12:32;17.07;;;4.03;;
2624;SDS011;1322;53.256;10.386;2023-11-19T14:14:58;13.13;;;2.60;;
2624;SDS011;1322;53.256;10.386;2023-11-19T14:17:25;8.90;;;2.53;;
2624;SDS011;1322;53.256;10.386;2023-11-19T14:19:51;10.80;;;3.67;;
2624;SDS011;1322;53.256;10.386;2023-11-19T14:22:18;18.93;;;3.17;;
2624;SDS011;1322;53.256;10.386;2023-11-19T14:24:44;14.60;;;3.50;;
2624;SDS011;1322;53.256;10.386;2023-11-19T14:27:10;12.97;;;2.70;;
2624;SDS011;1322;53.256;10.386;2023-11-19T14:29:36;12.43;;;2.90;;
2624;SDS011;1322;53.256;10.386;2023-11-19T14:32:02;11.17;;;3.03;;
2624;SDS011;1322;53.256;10.386;2023-11-19T14:34:32;15.37;;;3.63;;
2624;SDS011;1322;53.256;10.386;2023-11-19T14:36:57;6.20;;;2.90;;
2624;SDS011;1322;53.256;10.386;2023-11-19T14:39:27;7.83;;;2.60;;
2624;SDS011;1322;53.256;10.386;2023-11-19T14:41:55;9.13;;;3.40;;
2624;SDS011;1322;53.256;10.386;2023-11-19T14:44:25;11.57;;;3.57;;
2624;SDS011;1322;53.256;10.386;2023-11-19T14:46:51;12.77;;;2.47;;
2624;SDS011;1322;53.256;10.386;2023-11-19T14:49:17;13.03;;;2.83;;
2624;SDS011;1322;53.256;10.386;2023-11-19T14:51:43;18.23;;;3.30;;
2624;SDS011;1322;53.256;10.386;2023-11-19T14:54:09;11.03;;;2.57;;
2624;SDS011;1322;53.256;10.386;2023-11-19T14:56:35;8.03;;;2.30;;
2624;SDS011;1322;53.256;10.386;2023-11-19T14:59:03;3.90;;;2.27;;
2624;SDS011;1322;53.256;10.386;2023-11-19T15:01:29;12.87;;;5.63;;
2624;SDS011;1322;53.256;10.386;2023-11-19T15:03:55;8.70;;;3.67;;
2624;SDS011;1322;53.256;10.386;2023-11-19T15:06:25;9.53;;;3.40;;
2624;SDS011;1322;53.256;10.386;2023-11-19T15:08:55;6.90;;;2.53;;
2624;SDS011;1322;53.256;10.386;2023-11-19T15:11:21;8.63;;;2.10;;
2624;SDS011;1322;53.256;10.386;2023-11-19T15:13:48;5.80;;;2.03;;
2624;SDS011;1322;53.256;10.386;2023-11-19T15:16:14;8.50;;;1.70;;
2624;SDS011;1322;53.256;10.386;2023-11-19T15:18:47;7.03;;;1.80;;
2624;SDS011;1322;53.256;10.386;2023-11-19T15:21:13;6.47;;;2.07;;